sensor_id;sensor_type;location;lat;lon;timestamp;P1;P2;P0
54305;PMS7003;66145;45.188;5.712;2024-03-02T00:02:23;2.00;2.00;1.00
54305;PMS7003;66145;45.188;5.712;2024-03-02T00:04:49;2.00;2.00;1.67
54305;PMS7003;66145;45.188;5.712;2024-03-02T00:07:14;1.33;1.33;1.33
54305;PMS7003;66145;45.188;5.712;2024-03-02T00:09:39;2.00;2.00;2.00
54305;PMS7003;66145;45.188;5.712;2024-03-02T00:12:05;2.67;2.67;2.00
54305;PMS7003;66145;45.188;5.712;2024-03-02T00:14:30;3.00;2.67;2.33
54305;PMS7003;66145;45.188;5.712;2024-03-02T00:16:56;2.33;2.33;2.00
54305;PMS7003;66145;45.188;5.712;2024-03-02T00:19:22;2.67;2.67;1.67
54305;PMS7003;66145;45.188;5.712;2024-03-02T00:21:48;2.00;2.00;1.00
54305;PMS7003;66145;45.188;5.712;2024-03-02T00:27:12;2.00;2.00;1.50
54305;PMS7003;66145;45.188;5.712;2024-03-02T00:29:40;4.75;2.75;2.75
54305;PMS7003;66145;45.188;5.712;2024-03-02T00:32:10;3.00;3.00;2.00
54305;PMS7003;66145;45.188;5.712;2024-03-02T00:34:38;2.00;2.00;2.00
54305;PMS7003;66145;45.188;5.712;2024-03-02T00:37:04;3.00;3.00;2.00
54305;PMS7003;66145;45.188;5.712;2024-03-02T00:39:30;2.00;2.00;1.33
54305;PMS7003;66145;45.188;5.712;2024-03-02T00:41:55;2.00;2.00;2.00
54305;PMS7003;66145;45.188;5.712;2024-03-02T00:44:21;2.00;2.00;2.00
54305;PMS7003;66145;45.188;5.712;2024-03-02T00:46:51;2.00;2.00;0.75
54305;PMS7003;66145;45.188;5.712;2024-03-02T00:49:24;2.50;2.50;2.00
54305;PMS7003;66145;45.188;5.712;2024-03-02T00:51:52;3.25;3.25;2.00
54305;PMS7003;66145;45.188;5.712;2024-03-02T00:54:19;2.25;2.25;2.00
54305;PMS7003;66145;45.188;5.712;2024-03-02T00:56:47;2.00;2.00;1.00
54305;PMS7003;66145;45.188;5.712;2024-03-02T00:59:13;2.75;2.75;0.75
54305;PMS7003;66145;45.188;5.712;2024-03-02T01:01:38;3.67;2.33;1.00
54305;PMS7003;66145;45.188;5.712;2024-03-02T01:04:03;3.00;3.00;2.33
54305;PMS7003;66145;45.188;5.712;2024-03-02T01:06:30;3.00;3.00;1.75
54305;PMS7003;66145;45.188;5.712;2024-03-02T01:08:55;3.00;3.00;2.00
54305;PMS7003;66145;45.188;5.712;2024-03-02T01:11:21;2.33;2.33;2.00
54305;PMS7003;66145;45.188;5.712;2024-03-02T01:13:49;2.50;2.50;1.75
54305;PMS7003;66145;45.188;5.712;2024-03-02T01:16:15;5.00;2.33;1.33
54305;PMS7003;66145;45.188;5.712;2024-03-02T01:18:41;2.00;2.00;2.00
54305;PMS7003;66145;45.188;5.712;2024-03-02T01:21:06;1.25;1.25;0.75
54305;PMS7003;66145;45.188;5.712;2024-03-02T01:23:32;2.67;2.67;2.67
54305;PMS7003;66145;45.188;5.712;2024-03-02T01:25:58;2.67;2.67;2.00
54305;PMS7003;66145;45.188;5.712;2024-03-02T01:28:23;2.00;2.00;2.00
54305;PMS7003;66145;45.188;5.712;2024-03-02T01:30:49;2.00;2.00;1.33
54305;PMS7003;66145;45.188;5.712;2024-03-02T01:33:14;4.00;2.33;2.00
54305;PMS7003;66145;45.188;5.712;2024-03-02T01:35:40;3.00;3.00;2.00
54305;PMS7003;66145;45.188;5.712;2024-03-02T01:38:05;2.33;2.33;2.00
54305;PMS7003;66145;45.188;5.712;2024-03-02T01:40:32;2.00;2.00;2.00
54305;PMS7003;66145;45.188;5.712;2024-03-02T01:43:01;2.75;2.75;2.00
54305;PMS7003;66145;45.188;5.712;2024-03-02T01:45:27;2.75;2.75;2.00
54305;PMS7003;66145;45.188;5.712;2024-03-02T01:47:52;2.00;2.00;1.00
54305;PMS7003;66145;45.188;5.712;2024-03-02T01:50:28;2.00;2.00;2.00
54305;PMS7003;66145;45.188;5.712;2024-03-02T01:52:57;2.50;2.50;2.00
54305;PMS7003;66145;45.188;5.712;2024-03-02T01:55:24;2.25;2.25;2.25
54305;PMS7003;66145;45.188;5.712;2024-03-02T01:57:49;2.67;2.67;1.67
54305;PMS7003;66145;45.188;5.712;2024-03-02T02:00:19;3.25;3.25;2.75
54305;PMS7003;66145;45.188;5.712;2024-03-02T02:02:45;4.75;2.75;2.75
54305;PMS7003;66145;45.188;5.712;2024-03-02T02:05:11;3.25;3.25;2.75
54305;PMS7003;66145;45.188;5.712;2024-03-02T02:07:37;5.00;4.00;3.00
54305;PMS7003;66145;45.188;5.712;2024-03-02T02:10:03;3.00;3.00;2.00
54305;PMS7003;66145;45.188;5.712;2024-03-02T02:12:28;4.33;4.33;4.00
54305;PMS7003;66145;45.188;5.712;2024-03-02T02:14:54;3.00;3.00;3.00
54305;PMS7003;66145;45.188;5.712;2024-03-02T02:17:19;3.00;3.00;2.00
54305;PMS7003;66145;45.188;5.712;2024-03-02T02:19:44;3.67;3.67;3.00
54305;PMS7003;66145;45.188;5.712;2024-03-02T02:22:10;4.00;4.00;3.33
54305;PMS7003;66145;45.188;5.712;2024-03-02T02:24:36;3.00;3.00;3.00
54305;PMS7003;66145;45.188;5.712;2024-03-02T02:27:05;3.75;3.50;3.00
54305;PMS7003;66145;45.188;5.712;2024-03-02T02:29:30;3.33;3.33;3.00
54305;PMS7003;66145;45.188;5.712;2024-03-02T02:31:55;3.00;3.00;2.00
54305;PMS7003;66145;45.188;5.712;2024-03-02T02:34:21;3.33;3.33;2.33
54305;PMS7003;66145;45.188;5.712;2024-03-02T02:36:46;4.00;4.00;3.33
54305;PMS7003;66145;45.188;5.712;2024-03-02T02:39:13;3.67;3.67;3.00
54305;PMS7003;66145;45.188;5.712;2024-03-02T02:41:42;5.75;4.00;3.25
54305;PMS7003;66145;45.188;5.712;2024-03-02T02:44:07;4.00;4.00;3.00
54305;PMS7003;66145;45.188;5.712;2024-03-02T02:46:33;3.00;3.00;2.33
54305;PMS7003;66145;45.188;5.712;2024-03-02T02:48:58;5.00;5.00;4.00
54305;PMS7003;66145;45.188;5.712;2024-03-02T02:51:24;5.00;4.00;3.00
54305;PMS7003;66145;45.188;5.712;2024-03-02T02:53:50;1.25;1.25;0.25
54305;PMS7003;66145;45.188;5.712;2024-03-02T02:56:16;6.00;4.00;3.33
54305;PMS7003;66145;45.188;5.712;2024-03-02T02:58:41;4.00;4.00;3.00
54305;PMS7003;66145;45.188;5.712;2024-03-02T03:01:07;5.00;5.00;3.00
54305;PMS7003;66145;45.188;5.712;2024-03-02T03:03:32;4.00;4.00;3.00
54305;PMS7003;66145;45.188;5.712;2024-03-02T03:05:58;3.67;3.67;2.33
54305;PMS7003;66145;45.188;5.712;2024-03-02T03:08:23;6.33;4.00;3.00
54305;PMS7003;66145;45.188;5.712;2024-03-02T03:10:49;4.00;4.00;4.00
54305;PMS7003;66145;45.188;5.712;2024-03-02T03:13:14;4.00;4.00;3.67
54305;PMS7003;66145;45.188;5.712;2024-03-02T03:15:39;6.00;4.33;3.00
54305;PMS7003;66145;45.188;5.712;2024-03-02T03:18:05;6.00;6.00;5.00
54305;PMS7003;66145;45.188;5.712;2024-03-02T03:20:30;5.33;5.33;4.33
54305;PMS7003;66145;45.188;5.712;2024-03-02T03:22:56;6.00;6.00;5.00
54305;PMS7003;66145;45.188;5.712;2024-03-02T03:25:22;4.75;4.75;3.75
54305;PMS7003;66145;45.188;5.712;2024-03-02T03:27:47;5.00;5.00;3.33
54305;PMS7003;66145;45.188;5.712;2024-03-02T03:30:13;4.00;4.00;3.00
54305;PMS7003;66145;45.188;5.712;2024-03-02T03:32:39;4.00;4.00;3.33
54305;PMS7003;66145;45.188;5.712;2024-03-02T03:35:04;4.00;4.00;3.00
54305;PMS7003;66145;45.188;5.712;2024-03-02T03:37:31;4.75;4.75;3.75
54305;PMS7003;66145;45.188;5.712;2024-03-02T03:39:59;4.75;4.75;3.75
54305;PMS7003;66145;45.188;5.712;2024-03-02T03:42:26;3.25;3.25;3.00
54305;PMS7003;66145;45.188;5.712;2024-03-02T03:44:51;6.67;5.33;4.00
54305;PMS7003;66145;45.188;5.712;2024-03-02T03:47:17;8.00;8.00;5.00
54305;PMS7003;66145;45.188;5.712;2024-03-02T03:49:42;3.67;3.67;3.00
54305;PMS7003;66145;45.188;5.712;2024-03-02T03:52:07;4.00;4.00;3.33
54305;PMS7003;66145;45.188;5.712;2024-03-02T03:54:33;6.33;4.67;3.00
54305;PMS7003;66145;45.188;5.712;2024-03-02T03:56:58;5.00;5.00;3.67
54305;PMS7003;66145;45.188;5.712;2024-03-02T03:59:23;6.00;6.00;4.00
54305;PMS7003;66145;45.188;5.712;2024-03-02T04:01:49;4.67;4.67;3.67
54305;PMS7003;66145;45.188;5.712;2024-03-02T04:04:14;4.00;4.00;3.00
54305;PMS7003;66145;45.188;5.712;2024-03-02T04:06:39;5.00;5.00;5.00
54305;PMS7003;66145;45.188;5.712;2024-03-02T04:09:05;5.00;5.00;3.00
54305;PMS7003;66145;45.188;5.712;2024-03-02T04:11:30;4.33;4.33;3.67
54305;PMS7003;66145;45.188;5.712;2024-03-02T04:13:56;5.00;4.00;3.00
54305;PMS7003;66145;45.188;5.712;2024-03-02T04:16:21;7.00;5.67;5.00
54305;PMS7003;66145;45.188;5.712;2024-03-02T04:18:46;5.00;5.00;4.00
54305;PMS7003;66145;45.188;5.712;2024-03-02T04:21:11;3.33;3.33;3.00
54305;PMS7003;66145;45.188;5.712;2024-03-02T04:23:37;6.67;5.00;4.00
54305;PMS7003;66145;45.188;5.712;2024-03-02T04:26:02;4.33;4.33;4.00
54305;PMS7003;66145;45.188;5.712;2024-03-02T04:28:28;5.00;5.00;3.67
54305;PMS7003;66145;45.188;5.712;2024-03-02T04:30:53;5.67;5.67;5.00
54305;PMS7003;66145;45.188;5.712;2024-03-02T04:33:18;3.00;3.00;3.00
54305;PMS7003;66145;45.188;5.712;2024-03-02T04:35:44;4.67;4.67;3.67
54305;PMS7003;66145;45.188;5.712;2024-03-02T04:38:09;6.33;5.33;3.00
54305;PMS7003;66145;45.188;5.712;2024-03-02T04:40:34;5.00;5.00;4.00
54305;PMS7003;66145;45.188;5.712;2024-03-02T04:42:59;4.00;4.00;3.67
54305;PMS7003;66145;45.188;5.712;2024-03-02T04:45:25;4.00;4.00;4.00
54305;PMS7003;66145;45.188;5.712;2024-03-02T04:47:50;4.00;4.00;3.00
54305;PMS7003;66145;45.188;5.712;2024-03-02T04:50:15;5.00;5.00;4.00
54305;PMS7003;66145;45.188;5.712;2024-03-02T04:52:41;5.00;5.00;4.00
54305;PMS7003;66145;45.188;5.712;2024-03-02T04:55:06;4.67;4.67;3.67
54305;PMS7003;66145;45.188;5.712;2024-03-02T04:57:34;5.25;4.50;4.00
54305;PMS7003;66145;45.188;5.712;2024-03-02T05:00:00;3.00;3.00;3.00
54305;PMS7003;66145;45.188;5.712;2024-03-02T05:02:25;5.00;5.00;3.33
54305;PMS7003;66145;45.188;5.712;2024-03-02T05:04:51;5.33;4.00;3.00
54305;PMS7003;66145;45.188;5.712;2024-03-02T05:07:16;5.00;5.00;3.00
54305;PMS7003;66145;45.188;5.712;2024-03-02T05:09:41;4.00;4.00;3.00
54305;PMS7003;66145;45.188;5.712;2024-03-02T05:12:07;2.00;2.00;1.00
54305;PMS7003;66145;45.188;5.712;2024-03-02T05:15:06;4.50;4.50;3.50
54305;PMS7003;66145;45.188;5.712;2024-03-02T05:17:32;3.00;3.00;2.75
54305;PMS7003;66145;45.188;5.712;2024-03-02T05:19:57;5.33;4.00;3.33
54305;PMS7003;66145;45.188;5.712;2024-03-02T05:22:23;3.00;3.00;3.00
54305;PMS7003;66145;45.188;5.712;2024-03-02T05:24:48;3.33;3.33;3.33
54305;PMS7003;66145;45.188;5.712;2024-03-02T05:27:13;4.00;4.00;3.00
54305;PMS7003;66145;45.188;5.712;2024-03-02T05:29:39;5.00;3.75;2.75
54305;PMS7003;66145;45.188;5.712;2024-03-02T05:32:05;4.00;4.00;3.33
54305;PMS7003;66145;45.188;5.712;2024-03-02T05:34:31;4.00;4.00;3.67
54305;PMS7003;66145;45.188;5.712;2024-03-02T05:36:57;5.00;5.00;3.75
54305;PMS7003;66145;45.188;5.712;2024-03-02T05:39:23;5.00;3.00;3.00
54305;PMS7003;66145;45.188;5.712;2024-03-02T05:41:48;4.33;2.67;2.00
54305;PMS7003;66145;45.188;5.712;2024-03-02T05:44:13;5.00;5.00;3.67
54305;PMS7003;66145;45.188;5.712;2024-03-02T05:46:40;4.75;4.75;3.75
54305;PMS7003;66145;45.188;5.712;2024-03-02T05:49:05;5.33;4.33;4.00
54305;PMS7003;66145;45.188;5.712;2024-03-02T05:51:32;3.00;3.00;2.75
54305;PMS7003;66145;45.188;5.712;2024-03-02T05:53:58;4.33;4.33;4.00
54305;PMS7003;66145;45.188;5.712;2024-03-02T05:56:23;5.00;5.00;4.67
54305;PMS7003;66145;45.188;5.712;2024-03-02T05:58:48;4.00;4.00;3.33
54305;PMS7003;66145;45.188;5.712;2024-03-02T06:01:33;5.25;5.25;3.75
54305;PMS7003;66145;45.188;5.712;2024-03-02T06:03:59;4.00;4.00;3.00
54305;PMS7003;66145;45.188;5.712;2024-03-02T06:06:24;3.67;3.67;3.00
54305;PMS7003;66145;45.188;5.712;2024-03-02T06:08:49;4.00;4.00;3.00
54305;PMS7003;66145;45.188;5.712;2024-03-02T06:11:15;4.00;4.00;3.00
54305;PMS7003;66145;45.188;5.712;2024-03-02T06:13:41;6.00;6.00;4.33
54305;PMS7003;66145;45.188;5.712;2024-03-02T06:16:06;7.00;5.67;4.00
54305;PMS7003;66145;45.188;5.712;2024-03-02T06:18:31;5.33;5.33;4.00
54305;PMS7003;66145;45.188;5.712;2024-03-02T06:20:57;5.00;5.00;4.00
54305;PMS7003;66145;45.188;5.712;2024-03-02T06:23:22;7.00;5.33;5.00
54305;PMS7003;66145;45.188;5.712;2024-03-02T06:25:47;5.00;5.00;4.33
54305;PMS7003;66145;45.188;5.712;2024-03-02T06:28:13;5.00;5.00;4.00
54305;PMS7003;66145;45.188;5.712;2024-03-02T06:30:40;4.50;4.50;3.25
54305;PMS7003;66145;45.188;5.712;2024-03-02T06:33:07;5.75;5.75;3.75
54305;PMS7003;66145;45.188;5.712;2024-03-02T06:35:32;6.00;4.67;4.00
54305;PMS7003;66145;45.188;5.712;2024-03-02T06:37:57;5.00;5.00;4.00
54305;PMS7003;66145;45.188;5.712;2024-03-02T06:40:23;5.00;5.00;4.00
54305;PMS7003;66145;45.188;5.712;2024-03-02T06:42:48;5.67;4.67;4.00
54305;PMS7003;66145;45.188;5.712;2024-03-02T06:45:13;6.00;6.00;4.00
54305;PMS7003;66145;45.188;5.712;2024-03-02T06:47:39;5.33;5.33;4.33
54305;PMS7003;66145;45.188;5.712;2024-03-02T06:50:04;5.00;5.00;4.00
54305;PMS7003;66145;45.188;5.712;2024-03-02T06:52:32;6.00;6.00;4.50
54305;PMS7003;66145;45.188;5.712;2024-03-02T06:54:57;4.33;4.33;4.00
54305;PMS7003;66145;45.188;5.712;2024-03-02T06:57:22;6.33;5.00;4.00
54305;PMS7003;66145;45.188;5.712;2024-03-02T06:59:49;0.50;0.00;0.00
54305;PMS7003;66145;45.188;5.712;2024-03-02T07:02:16;4.75;4.75;3.50
54305;PMS7003;66145;45.188;5.712;2024-03-02T07:04:41;5.00;5.00;4.00
54305;PMS7003;66145;45.188;5.712;2024-03-02T07:07:07;4.67;4.67;4.00
54305;PMS7003;66145;45.188;5.712;2024-03-02T07:09:32;5.00;5.00;5.00
54305;PMS7003;66145;45.188;5.712;2024-03-02T07:11:57;6.33;5.00;5.00
54305;PMS7003;66145;45.188;5.712;2024-03-02T07:14:23;7.67;7.00;4.33
54305;PMS7003;66145;45.188;5.712;2024-03-02T07:17:08;4.75;4.75;4.25
54305;PMS7003;66145;45.188;5.712;2024-03-02T07:19:34;7.00;7.00;5.25
54305;PMS7003;66145;45.188;5.712;2024-03-02T07:22:00;4.33;4.33;4.00
54305;PMS7003;66145;45.188;5.712;2024-03-02T07:24:25;7.00;6.67;4.67
54305;PMS7003;66145;45.188;5.712;2024-03-02T07:26:50;6.67;6.00;5.00
54305;PMS7003;66145;45.188;5.712;2024-03-02T07:29:16;8.33;8.33;5.67
54305;PMS7003;66145;45.188;5.712;2024-03-02T07:31:41;6.00;6.00;4.00
54305;PMS7003;66145;45.188;5.712;2024-03-02T07:34:07;5.00;5.00;4.33
54305;PMS7003;66145;45.188;5.712;2024-03-02T07:36:32;7.00;7.00;5.00
54305;PMS7003;66145;45.188;5.712;2024-03-02T07:38:57;6.33;5.00;4.33
54305;PMS7003;66145;45.188;5.712;2024-03-02T07:41:23;7.00;5.00;5.00
54305;PMS7003;66145;45.188;5.712;2024-03-02T07:43:48;6.00;6.00;5.00
54305;PMS7003;66145;45.188;5.712;2024-03-02T07:46:14;5.00;5.00;4.00
54305;PMS7003;66145;45.188;5.712;2024-03-02T07:48:39;6.67;6.67;5.00
54305;PMS7003;66145;45.188;5.712;2024-03-02T07:51:04;7.00;7.00;5.00
54305;PMS7003;66145;45.188;5.712;2024-03-02T07:53:30;6.67;6.67;5.00
54305;PMS7003;66145;45.188;5.712;2024-03-02T07:55:56;6.67;6.67;5.00
54305;PMS7003;66145;45.188;5.712;2024-03-02T07:58:26;5.00;5.00;4.00
54305;PMS7003;66145;45.188;5.712;2024-03-02T08:00:51;6.67;6.67;5.00
54305;PMS7003;66145;45.188;5.712;2024-03-02T08:03:17;7.00;7.00;5.00
54305;PMS7003;66145;45.188;5.712;2024-03-02T08:05:42;5.00;4.00;4.00
54305;PMS7003;66145;45.188;5.712;2024-03-02T08:08:09;5.75;5.75;5.00
54305;PMS7003;66145;45.188;5.712;2024-03-02T08:10:34;7.00;5.67;4.00
54305;PMS7003;66145;45.188;5.712;2024-03-02T08:13:00;5.00;5.00;4.67
54305;PMS7003;66145;45.188;5.712;2024-03-02T08:15:26;4.33;4.33;4.00
54305;PMS7003;66145;45.188;5.712;2024-03-02T08:17:51;5.33;5.33;5.00
54305;PMS7003;66145;45.188;5.712;2024-03-02T08:20:17;6.00;6.00;4.33
54305;PMS7003;66145;45.188;5.712;2024-03-02T08:22:42;5.00;5.00;4.00
54305;PMS7003;66145;45.188;5.712;2024-03-02T08:25:08;6.33;6.33;5.00
54305;PMS7003;66145;45.188;5.712;2024-03-02T08:27:34;6.25;6.25;4.75
54305;PMS7003;66145;45.188;5.712;2024-03-02T08:30:00;5.00;5.00;5.00
54305;PMS7003;66145;45.188;5.712;2024-03-02T08:32:25;5.33;5.33;4.67
54305;PMS7003;66145;45.188;5.712;2024-03-02T08:34:50;6.00;6.00;4.00
54305;PMS7003;66145;45.188;5.712;2024-03-02T08:37:16;7.33;7.33;6.00
54305;PMS7003;66145;45.188;5.712;2024-03-02T08:39:41;6.33;5.00;4.00
54305;PMS7003;66145;45.188;5.712;2024-03-02T08:42:06;3.67;3.67;3.67
54305;PMS7003;66145;45.188;5.712;2024-03-02T08:44:32;5.00;5.00;5.00
54305;PMS7003;66145;45.188;5.712;2024-03-02T08:46:58;6.25;6.00;5.00
54305;PMS7003;66145;45.188;5.712;2024-03-02T08:49:23;5.00;5.00;4.00
54305;PMS7003;66145;45.188;5.712;2024-03-02T08:51:49;5.00;3.33;3.00
54305;PMS7003;66145;45.188;5.712;2024-03-02T08:54:19;5.00;5.00;4.00
54305;PMS7003;66145;45.188;5.712;2024-03-02T08:56:46;4.75;4.75;3.25
54305;PMS7003;66145;45.188;5.712;2024-03-02T08:59:11;5.00;5.00;4.00
54305;PMS7003;66145;45.188;5.712;2024-03-02T09:01:36;4.00;4.00;3.25
54305;PMS7003;66145;45.188;5.712;2024-03-02T09:04:06;4.75;4.75;3.50
54305;PMS7003;66145;45.188;5.712;2024-03-02T09:06:32;4.00;4.00;3.33
54305;PMS7003;66145;45.188;5.712;2024-03-02T09:08:57;5.33;3.33;3.00
54305;PMS7003;66145;45.188;5.712;2024-03-02T09:11:22;3.67;3.67;2.67
54305;PMS7003;66145;45.188;5.712;2024-03-02T09:13:48;3.25;3.25;3.00
54305;PMS7003;66145;45.188;5.712;2024-03-02T09:16:14;3.00;3.00;2.33
54305;PMS7003;66145;45.188;5.712;2024-03-02T09:18:39;4.33;4.33;3.33
54305;PMS7003;66145;45.188;5.712;2024-03-02T09:21:04;4.00;4.00;3.75
54305;PMS7003;66145;45.188;5.712;2024-03-02T09:23:30;4.00;4.00;3.33
54305;PMS7003;66145;45.188;5.712;2024-03-02T09:25:55;5.00;4.00;3.00
54305;PMS7003;66145;45.188;5.712;2024-03-02T09:28:20;3.25;3.25;3.00
54305;PMS7003;66145;45.188;5.712;2024-03-02T09:30:46;3.25;3.25;2.50
54305;PMS7003;66145;45.188;5.712;2024-03-02T09:33:11;2.75;2.75;2.25
54305;PMS7003;66145;45.188;5.712;2024-03-02T09:35:36;3.00;3.00;2.00
54305;PMS7003;66145;45.188;5.712;2024-03-02T09:38:02;2.33;2.33;2.00
54305;PMS7003;66145;45.188;5.712;2024-03-02T09:40:28;3.25;3.25;2.75
54305;PMS7003;66145;45.188;5.712;2024-03-02T09:42:54;3.00;3.00;2.67
54305;PMS7003;66145;45.188;5.712;2024-03-02T09:45:22;2.60;2.60;2.20
54305;PMS7003;66145;45.188;5.712;2024-03-02T09:47:49;2.75;2.75;2.25
54305;PMS7003;66145;45.188;5.712;2024-03-02T09:50:14;3.00;3.00;2.33
54305;PMS7003;66145;45.188;5.712;2024-03-02T09:52:41;4.00;4.00;3.00
54305;PMS7003;66145;45.188;5.712;2024-03-02T09:55:08;3.00;2.75;2.50
54305;PMS7003;66145;45.188;5.712;2024-03-02T09:57:33;5.00;3.67;3.00
54305;PMS7003;66145;45.188;5.712;2024-03-02T09:59:59;3.00;3.00;2.00
54305;PMS7003;66145;45.188;5.712;2024-03-02T10:02:24;3.00;3.00;2.00
54305;PMS7003;66145;45.188;5.712;2024-03-02T10:04:49;3.00;3.00;3.00
54305;PMS7003;66145;45.188;5.712;2024-03-02T10:07:15;4.00;4.00;2.33
54305;PMS7003;66145;45.188;5.712;2024-03-02T10:09:43;3.50;3.25;3.25
54305;PMS7003;66145;45.188;5.712;2024-03-02T10:12:10;3.25;3.25;2.75
54305;PMS7003;66145;45.188;5.712;2024-03-02T10:14:36;3.00;2.75;2.00
54305;PMS7003;66145;45.188;5.712;2024-03-02T10:17:03;4.33;3.00;3.00
54305;PMS7003;66145;45.188;5.712;2024-03-02T10:19:33;2.75;2.75;1.75
54305;PMS7003;66145;45.188;5.712;2024-03-02T10:22:00;2.00;2.00;1.20
54305;PMS7003;66145;45.188;5.712;2024-03-02T10:24:48;1.25;1.25;1.00
54305;PMS7003;66145;45.188;5.712;2024-03-02T10:27:15;3.00;3.00;2.75
54305;PMS7003;66145;45.188;5.712;2024-03-02T10:29:42;4.25;4.25;3.25
54305;PMS7003;66145;45.188;5.712;2024-03-02T10:32:10;4.25;4.25;3.00
54305;PMS7003;66145;45.188;5.712;2024-03-02T10:34:37;2.75;2.75;1.75
54305;PMS7003;66145;45.188;5.712;2024-03-02T10:37:03;3.25;2.75;1.75
54305;PMS7003;66145;45.188;5.712;2024-03-02T10:39:28;3.67;2.00;2.00
54305;PMS7003;66145;45.188;5.712;2024-03-02T10:41:55;2.00;2.00;1.33
54305;PMS7003;66145;45.188;5.712;2024-03-02T10:44:20;3.00;3.00;2.50
54305;PMS7003;66145;45.188;5.712;2024-03-02T10:46:47;3.00;3.00;2.25
54305;PMS7003;66145;45.188;5.712;2024-03-02T10:49:14;3.75;3.50;2.50
54305;PMS7003;66145;45.188;5.712;2024-03-02T10:51:39;1.75;1.75;1.25
54305;PMS7003;66145;45.188;5.712;2024-03-02T10:54:05;5.00;4.00;2.33
54305;PMS7003;66145;45.188;5.712;2024-03-02T10:56:31;4.00;4.00;2.33
54305;PMS7003;66145;45.188;5.712;2024-03-02T11:01:47;2.00;2.00;1.75
54305;PMS7003;66145;45.188;5.712;2024-03-02T11:04:14;2.75;2.75;1.75
54305;PMS7003;66145;45.188;5.712;2024-03-02T11:06:42;3.25;3.25;3.00
54305;PMS7003;66145;45.188;5.712;2024-03-02T11:09:14;2.50;2.50;1.75
54305;PMS7003;66145;45.188;5.712;2024-03-02T11:11:43;2.25;2.25;2.00
54305;PMS7003;66145;45.188;5.712;2024-03-02T11:14:13;2.75;2.75;2.00
54305;PMS7003;66145;45.188;5.712;2024-03-02T11:16:41;0.75;0.75;0.00
54305;PMS7003;66145;45.188;5.712;2024-03-02T11:19:09;3.00;2.75;2.00
54305;PMS7003;66145;45.188;5.712;2024-03-02T11:21:36;3.75;3.00;2.00
54305;PMS7003;66145;45.188;5.712;2024-03-02T11:26:48;3.00;3.00;2.60
54305;PMS7003;66145;45.188;5.712;2024-03-02T11:32:00;1.60;0.00;0.00
54305;PMS7003;66145;45.188;5.712;2024-03-02T11:36:54;2.00;2.00;2.00
54305;PMS7003;66145;45.188;5.712;2024-03-02T11:39:19;2.50;2.50;1.75
54305;PMS7003;66145;45.188;5.712;2024-03-02T11:41:45;2.25;2.25;2.25
54305;PMS7003;66145;45.188;5.712;2024-03-02T11:44:10;3.67;3.00;2.00
54305;PMS7003;66145;45.188;5.712;2024-03-02T11:46:36;1.60;1.60;1.20
54305;PMS7003;66145;45.188;5.712;2024-03-02T11:49:04;2.40;2.40;1.80
54305;PMS7003;66145;45.188;5.712;2024-03-02T11:51:30;3.25;2.50;2.00
54305;PMS7003;66145;45.188;5.712;2024-03-02T11:54:00;1.80;1.80;1.80
54305;PMS7003;66145;45.188;5.712;2024-03-02T11:56:27;1.80;1.80;1.00
54305;PMS7003;66145;45.188;5.712;2024-03-02T11:58:56;3.00;2.00;2.00
54305;PMS7003;66145;45.188;5.712;2024-03-02T12:01:22;2.60;1.80;1.60
54305;PMS7003;66145;45.188;5.712;2024-03-02T12:03:48;2.00;2.00;1.00
54305;PMS7003;66145;45.188;5.712;2024-03-02T12:06:13;0.00;0.00;0.00
54305;PMS7003;66145;45.188;5.712;2024-03-02T12:08:40;1.00;1.00;0.60
54305;PMS7003;66145;45.188;5.712;2024-03-02T12:11:05;2.00;2.00;1.00
54305;PMS7003;66145;45.188;5.712;2024-03-02T12:13:31;2.00;2.00;2.00
54305;PMS7003;66145;45.188;5.712;2024-03-02T12:15:57;2.20;2.20;1.60
54305;PMS7003;66145;45.188;5.712;2024-03-02T12:18:23;3.50;3.50;2.00
54305;PMS7003;66145;45.188;5.712;2024-03-02T12:20:49;1.60;1.60;1.60
54305;PMS7003;66145;45.188;5.712;2024-03-02T12:23:21;1.20;1.20;1.00
54305;PMS7003;66145;45.188;5.712;2024-03-02T12:25:47;2.50;2.50;1.50
54305;PMS7003;66145;45.188;5.712;2024-03-02T12:28:12;3.00;2.50;1.50
54305;PMS7003;66145;45.188;5.712;2024-03-02T12:30:38;1.50;1.50;1.50
54305;PMS7003;66145;45.188;5.712;2024-03-02T12:33:03;1.25;1.25;1.00
54305;PMS7003;66145;45.188;5.712;2024-03-02T12:35:30;1.60;1.60;0.60
54305;PMS7003;66145;45.188;5.712;2024-03-02T12:37:55;2.00;2.00;1.75
54305;PMS7003;66145;45.188;5.712;2024-03-02T12:40:21;2.33;2.33;2.00
54305;PMS7003;66145;45.188;5.712;2024-03-02T12:42:47;1.60;1.60;1.20
54305;PMS7003;66145;45.188;5.712;2024-03-02T12:45:14;1.60;1.60;1.20
54305;PMS7003;66145;45.188;5.712;2024-03-02T12:47:40;3.75;1.75;0.75
54305;PMS7003;66145;45.188;5.712;2024-03-02T12:50:07;2.00;2.00;2.00
54305;PMS7003;66145;45.188;5.712;2024-03-02T12:52:33;2.00;2.00;0.80
54305;PMS7003;66145;45.188;5.712;2024-03-02T12:54:59;1.80;1.80;1.80
54305;PMS7003;66145;45.188;5.712;2024-03-02T12:57:28;2.00;2.00;1.80
54305;PMS7003;66145;45.188;5.712;2024-03-02T13:02:29;3.00;1.60;1.00
54305;PMS7003;66145;45.188;5.712;2024-03-02T13:04:56;2.40;2.40;2.00
54305;PMS7003;66145;45.188;5.712;2024-03-02T13:07:25;2.60;2.60;2.00
54305;PMS7003;66145;45.188;5.712;2024-03-02T13:09:52;2.80;2.80;2.00
54305;PMS7003;66145;45.188;5.712;2024-03-02T13:12:18;2.60;2.20;2.00
54305;PMS7003;66145;45.188;5.712;2024-03-02T13:14:44;1.75;1.75;0.75
54305;PMS7003;66145;45.188;5.712;2024-03-02T13:17:13;2.50;2.50;1.75
54305;PMS7003;66145;45.188;5.712;2024-03-02T13:19:43;2.20;2.20;1.80
54305;PMS7003;66145;45.188;5.712;2024-03-02T13:22:15;2.00;2.00;1.60
54305;PMS7003;66145;45.188;5.712;2024-03-02T13:24:40;0.50;0.50;0.50
54305;PMS7003;66145;45.188;5.712;2024-03-02T13:27:07;1.50;1.50;0.75
54305;PMS7003;66145;45.188;5.712;2024-03-02T13:29:33;1.00;1.00;1.00
54305;PMS7003;66145;45.188;5.712;2024-03-02T13:31:58;1.00;1.00;0.75
54305;PMS7003;66145;45.188;5.712;2024-03-02T13:34:23;1.25;1.25;0.75
54305;PMS7003;66145;45.188;5.712;2024-03-02T13:36:49;2.00;2.00;1.00
54305;PMS7003;66145;45.188;5.712;2024-03-02T13:39:14;2.00;0.25;0.00
54305;PMS7003;66145;45.188;5.712;2024-03-02T13:41:40;1.00;1.00;1.00
54305;PMS7003;66145;45.188;5.712;2024-03-02T13:44:05;1.00;1.00;0.75
54305;PMS7003;66145;45.188;5.712;2024-03-02T13:46:31;1.00;1.00;0.25
54305;PMS7003;66145;45.188;5.712;2024-03-02T13:48:56;0.00;0.00;0.00
54305;PMS7003;66145;45.188;5.712;2024-03-02T13:51:26;0.80;0.80;0.20
54305;PMS7003;66145;45.188;5.712;2024-03-02T13:53:52;0.80;0.00;0.00
54305;PMS7003;66145;45.188;5.712;2024-03-02T13:56:17;0.00;0.00;0.00
54305;PMS7003;66145;45.188;5.712;2024-03-02T13:58:43;0.25;0.25;0.00
54305;PMS7003;66145;45.188;5.712;2024-03-02T14:01:08;1.00;1.00;0.75
54305;PMS7003;66145;45.188;5.712;2024-03-02T14:03:34;0.00;0.00;0.00
54305;PMS7003;66145;45.188;5.712;2024-03-02T14:06:00;1.00;1.00;0.00
54305;PMS7003;66145;45.188;5.712;2024-03-02T14:08:25;0.25;0.25;0.00
54305;PMS7003;66145;45.188;5.712;2024-03-02T14:10:50;0.00;0.00;0.00
54305;PMS7003;66145;45.188;5.712;2024-03-02T14:13:16;0.00;0.00;0.00
54305;PMS7003;66145;45.188;5.712;2024-03-02T14:15:41;1.50;0.00;0.00
54305;PMS7003;66145;45.188;5.712;2024-03-02T14:18:07;1.25;0.25;0.25
54305;PMS7003;66145;45.188;5.712;2024-03-02T14:20:35;0.60;0.60;0.60
54305;PMS7003;66145;45.188;5.712;2024-03-02T14:23:00;1.00;1.00;1.00
54305;PMS7003;66145;45.188;5.712;2024-03-02T14:25:27;0.00;0.00;0.00
54305;PMS7003;66145;45.188;5.712;2024-03-02T14:27:56;0.00;0.00;0.00
54305;PMS7003;66145;45.188;5.712;2024-03-02T14:30:22;1.00;0.00;0.00
54305;PMS7003;66145;45.188;5.712;2024-03-02T14:32:48;0.00;0.00;0.00
54305;PMS7003;66145;45.188;5.712;2024-03-02T14:35:13;0.00;0.00;0.00